createdAt,value
2018-01-10T00:02:03.104Z,100936.92
2018-01-10T00:04:30.784Z,100926.24
2018-01-10T00:06:58.367Z,100924.70
2018-01-10T00:09:26.058Z,100921.33
2018-01-10T00:11:53.647Z,100902.27
2018-01-10T00:14:21.227Z,100897.51
2018-01-10T00:16:48.813Z,100897.41
2018-01-10T00:19:16.395Z,100953.53
2018-01-10T00:21:43.988Z,100952.15
2018-01-10T00:24:11.576Z,100938.16
2018-01-10T00:26:39.156Z,100945.78
2018-01-10T00:29:06.740Z,100967.19
2018-01-10T00:31:34.324Z,100961.70
2018-01-10T00:34:01.908Z,100954.85
2018-01-10T00:36:29.497Z,100938.63
2018-01-10T00:38:57.119Z,100937.34
2018-01-10T00:41:24.706Z,100942.23
2018-01-10T00:43:52.323Z,100950.40
2018-01-10T00:46:19.912Z,100957.01
2018-01-10T00:48:47.559Z,100943.52
2018-01-10T00:51:15.172Z,100943.62
2018-01-10T00:53:42.753Z,100940.66
2018-01-10T00:56:10.362Z,100946.48
2018-01-10T00:58:37.951Z,100928.33
2018-01-10T01:01:05.602Z,100913.70
2018-01-10T01:03:33.184Z,100926.90
2018-01-10T01:06:00.840Z,100929.05
2018-01-10T01:08:28.420Z,100928.84
2018-01-10T01:10:56.047Z,100917.55
2018-01-10T01:13:23.695Z,100907.47
2018-01-10T01:15:51.279Z,100902.66
2018-01-10T01:18:18.891Z,100904.16
2018-01-10T01:20:46.598Z,100913.48
2018-01-10T01:23:14.220Z,100926.37
2018-01-10T01:25:41.795Z,100934.48
2018-01-10T01:28:09.414Z,100933.81
2018-01-10T01:30:36.999Z,100942.25
2018-01-10T01:33:04.615Z,100939.92
2018-01-10T01:35:32.240Z,100928.02
2018-01-10T01:37:59.851Z,100927.88
2018-01-10T01:40:27.544Z,100928.35
2018-01-10T01:42:55.203Z,100928.80
2018-01-10T01:45:22.837Z,100924.66
2018-01-10T01:47:50.411Z,100916.42
2018-01-10T01:50:17.987Z,100928.21
2018-01-10T01:52:45.600Z,100924.61
2018-01-10T01:55:13.217Z,100923.12
2018-01-10T01:57:40.791Z,100918.11
2018-01-10T02:00:08.455Z,100920.12
2018-01-10T02:02:36.050Z,100915.37
2018-01-10T02:05:03.695Z,100925.70
2018-01-10T02:07:31.320Z,100920.30
2018-01-10T02:09:58.935Z,100912.80
2018-01-10T02:12:26.516Z,100905.38
2018-01-10T02:14:54.131Z,100911.61
2018-01-10T02:17:21.780Z,100913.12
2018-01-10T02:19:49.442Z,100911.84
2018-01-10T02:22:17.055Z,100917.27
2018-01-10T02:24:44.636Z,100912.56
2018-01-10T02:27:12.255Z,100910.73
2018-01-10T02:29:39.887Z,100908.42
2018-01-10T02:32:07.545Z,100905.13
2018-01-10T02:34:35.208Z,100901.67
2018-01-10T02:37:02.873Z,100909.25
2018-01-10T02:39:30.456Z,100915.72
2018-01-10T02:41:58.268Z,100914.00
2018-01-10T02:44:25.958Z,100919.52
2018-01-10T02:46:53.631Z,100929.00
2018-01-10T02:49:21.252Z,100927.96
2018-01-10T02:51:48.830Z,100930.42
2018-01-10T02:54:16.446Z,100929.00
2018-01-10T02:56:44.036Z,100920.70
2018-01-10T02:59:11.621Z,100919.59
2018-01-10T03:01:39.208Z,100918.64
2018-01-10T03:04:06.840Z,100917.73
2018-01-10T03:06:34.424Z,100912.52
2018-01-10T03:09:02.044Z,100910.22
2018-01-10T03:11:29.624Z,100907.35
2018-01-10T03:13:57.240Z,100908.08
2018-01-10T03:16:24.898Z,100918.20
2018-01-10T03:18:52.522Z,100923.19
2018-01-10T03:21:20.346Z,100917.98
2018-01-10T03:23:47.959Z,100921.23
2018-01-10T03:26:15.620Z,100912.70
2018-01-10T03:28:43.247Z,100909.72
2018-01-10T03:31:10.834Z,100913.39
2018-01-10T03:33:38.424Z,100915.37
2018-01-10T03:36:06.035Z,100911.66
2018-01-10T03:38:33.611Z,100913.64
2018-01-10T03:41:01.231Z,100907.03
2018-01-10T03:43:28.850Z,100919.19
2018-01-10T03:45:56.468Z,100906.86
2018-01-10T03:48:24.135Z,100900.14
2018-01-10T03:50:51.735Z,100898.06
2018-01-10T03:53:19.316Z,100897.64
2018-01-10T03:55:46.895Z,100900.45
2018-01-10T03:58:14.514Z,100905.69
2018-01-10T04:00:42.135Z,100905.14
2018-01-10T04:03:09.751Z,100907.09
2018-01-10T04:05:37.331Z,100902.81
2018-01-10T04:08:04.952Z,100912.31
2018-01-10T04:10:32.535Z,100918.19
2018-01-10T04:13:00.160Z,100920.67
2018-01-10T04:15:27.735Z,100914.15
2018-01-10T04:17:55.320Z,100917.08
2018-01-10T04:20:22.903Z,100912.97
2018-01-10T04:22:50.521Z,100921.59
2018-01-10T04:25:18.203Z,100914.20
2018-01-10T04:27:45.792Z,100919.97
2018-01-10T04:30:13.427Z,100920.03
2018-01-10T04:32:41.137Z,100922.17
2018-01-10T04:35:08.719Z,100920.94
2018-01-10T04:37:36.335Z,100919.64
2018-01-10T04:40:03.952Z,100925.28
2018-01-10T04:42:31.531Z,100925.85
2018-01-10T04:44:59.159Z,100920.94
2018-01-10T04:47:26.911Z,100914.26
2018-01-10T04:49:54.531Z,100909.10
2018-01-10T04:52:22.110Z,100903.91
2018-01-10T04:54:49.746Z,100901.75
2018-01-10T04:57:17.331Z,100898.22
2018-01-10T04:59:44.910Z,100900.67
2018-01-10T05:02:12.492Z,100903.42
2018-01-10T05:04:40.105Z,100901.42
2018-01-10T05:07:07.726Z,100906.30
2018-01-10T05:09:35.421Z,100907.58
2018-01-10T05:12:03.040Z,100909.27
2018-01-10T05:14:31.630Z,100906.52
2018-01-10T05:16:59.248Z,100899.82
2018-01-10T05:19:26.867Z,100908.34
2018-01-10T05:21:54.448Z,100907.48
2018-01-10T05:24:22.061Z,100904.98
2018-01-10T05:26:49.687Z,100899.28
2018-01-10T05:29:17.278Z,100897.25
2018-01-10T05:31:44.860Z,100899.37
2018-01-10T05:34:12.440Z,100908.05
2018-01-10T05:36:40.029Z,100915.82
2018-01-10T05:39:07.651Z,100924.83
2018-01-10T05:41:35.239Z,100924.17
2018-01-10T05:44:02.864Z,100928.55
2018-01-10T05:46:30.456Z,100921.57
2018-01-10T05:48:58.084Z,100918.21
2018-01-10T05:51:25.663Z,100917.33
2018-01-10T05:53:53.247Z,100916.39
2018-01-10T05:56:20.875Z,100915.27
2018-01-10T05:58:48.479Z,100914.19
2018-01-10T06:01:16.103Z,100909.89
2018-01-10T06:03:43.690Z,100923.38
2018-01-10T06:06:11.412Z,100922.56
2018-01-10T06:08:38.995Z,100922.92
2018-01-10T06:11:06.578Z,100919.59
2018-01-10T06:13:34.172Z,100922.50
2018-01-10T06:16:01.795Z,100920.81
2018-01-10T06:18:29.375Z,100912.10
2018-01-10T06:20:56.997Z,100914.34
2018-01-10T06:23:24.624Z,100915.27
2018-01-10T06:25:52.215Z,100917.28
2018-01-10T06:28:19.847Z,100913.26
2018-01-10T06:30:47.472Z,100919.02
2018-01-10T06:33:15.068Z,100919.16
2018-01-10T06:35:42.739Z,100923.48
2018-01-10T06:38:10.326Z,100922.26
2018-01-10T06:40:37.944Z,100915.02
2018-01-10T06:43:05.529Z,100922.17
2018-01-10T06:45:33.143Z,100921.05
2018-01-10T06:48:00.768Z,100927.33
2018-01-10T06:50:28.347Z,100930.27
2018-01-10T06:52:55.967Z,100927.31
2018-01-10T06:55:23.593Z,100924.00
2018-01-10T06:57:51.569Z,100917.11
2018-01-10T07:00:19.192Z,100918.11
2018-01-10T07:02:46.887Z,100925.17
2018-01-10T07:05:15.480Z,100924.05
2018-01-10T07:07:43.103Z,100922.70
2018-01-10T07:10:10.728Z,100909.20
2018-01-10T07:12:38.319Z,100904.44
2018-01-10T07:15:06.060Z,100908.31
2018-01-10T07:17:33.656Z,100911.84
2018-01-10T07:20:01.259Z,100917.02
2018-01-10T07:22:28.914Z,100924.43
2018-01-10T07:24:56.611Z,100916.50
2018-01-10T07:27:24.243Z,100913.58
2018-01-10T07:29:51.875Z,100911.87
2018-01-10T07:32:19.463Z,100923.12
2018-01-10T07:34:47.083Z,100935.28
2018-01-10T07:37:14.691Z,100936.81
2018-01-10T07:39:42.352Z,100938.00
2018-01-10T07:42:09.935Z,100954.88
2018-01-10T07:44:37.553Z,100956.36
2018-01-10T07:47:05.184Z,100951.58
2018-01-10T07:49:32.770Z,100960.20
2018-01-10T07:52:01.642Z,100960.27
2018-01-10T07:54:29.349Z,100953.78
2018-01-10T07:56:56.983Z,100951.79
2018-01-10T07:59:24.571Z,100958.06
2018-01-10T08:01:52.196Z,100950.67
2018-01-10T08:04:19.823Z,100944.20
2018-01-10T08:06:47.443Z,100949.80
2018-01-10T08:09:15.032Z,100951.02
2018-01-10T08:11:42.656Z,100964.66
2018-01-10T08:14:10.238Z,100968.44
2018-01-10T08:16:37.857Z,100964.75
2018-01-10T08:19:06.567Z,100971.25
2018-01-10T08:21:34.147Z,100974.59
2018-01-10T08:24:01.767Z,100976.98
2018-01-10T08:26:29.352Z,100975.63
2018-01-10T08:28:56.971Z,100963.93
2018-01-10T08:31:24.555Z,100964.80
2018-01-10T08:33:52.189Z,100960.72
2018-01-10T08:36:19.790Z,100960.41
2018-01-10T08:38:47.370Z,100961.23
2018-01-10T08:41:14.963Z,100960.81
2018-01-10T08:43:42.553Z,100965.80
2018-01-10T08:46:10.179Z,100956.19
2018-01-10T08:48:37.779Z,100946.02
2018-01-10T08:51:05.394Z,100953.95
2018-01-10T08:53:33.023Z,100945.74
2018-01-10T08:56:00.643Z,100949.06
2018-01-10T08:58:28.267Z,100950.84
2018-01-10T09:00:55.867Z,100958.86
2018-01-10T09:03:23.502Z,100958.17
2018-01-10T09:05:51.123Z,100956.02
2018-01-10T09:08:18.747Z,100959.70
2018-01-10T09:10:46.366Z,100963.06
2018-01-10T09:13:13.955Z,100964.80
2018-01-10T09:15:41.546Z,100953.67
2018-01-10T09:18:09.211Z,100951.59
2018-01-10T09:20:36.790Z,100957.56
2018-01-10T09:23:04.440Z,100953.30
2018-01-10T09:25:32.056Z,100961.52
2018-01-10T09:27:59.647Z,100953.99
2018-01-10T09:30:27.302Z,100952.28
2018-01-10T09:32:54.903Z,100956.16
2018-01-10T09:35:22.548Z,100961.86
2018-01-10T09:37:50.139Z,100963.42
2018-01-10T09:40:17.784Z,100958.95
2018-01-10T09:42:45.376Z,100950.12
2018-01-10T09:45:12.963Z,100952.31
2018-01-10T09:47:40.587Z,100952.41
2018-01-10T09:50:08.391Z,100952.89
2018-01-10T09:52:35.980Z,100943.81
2018-01-10T09:55:03.575Z,100941.27
2018-01-10T09:57:31.163Z,100942.98
2018-01-10T09:59:58.789Z,100948.06
2018-01-10T10:02:26.376Z,100945.05
2018-01-10T10:04:54.063Z,100955.08
2018-01-10T10:07:21.724Z,100955.09
2018-01-10T10:09:49.351Z,100956.33
2018-01-10T10:12:17.070Z,100955.62
2018-01-10T10:14:44.656Z,100948.18
2018-01-10T10:17:12.243Z,100941.72
2018-01-10T10:19:39.864Z,100943.41
2018-01-10T10:22:07.446Z,100929.03
2018-01-10T10:24:35.107Z,100925.17
2018-01-10T10:27:02.694Z,100915.78
2018-01-10T10:29:30.311Z,100919.33
2018-01-10T10:31:57.900Z,100914.63
2018-01-10T10:34:25.523Z,100902.91
2018-01-10T10:36:53.107Z,100892.06
2018-01-10T10:39:20.736Z,100888.65
2018-01-10T10:41:48.316Z,100896.25
2018-01-10T10:44:16.131Z,100885.19
2018-01-10T10:46:43.750Z,100880.29
2018-01-10T10:49:11.427Z,100871.19
2018-01-10T10:51:39.077Z,100887.13
2018-01-10T10:54:06.712Z,100891.45
2018-01-10T10:56:34.346Z,100881.33
2018-01-10T10:59:01.940Z,100882.52
2018-01-10T11:01:29.640Z,100876.05
2018-01-10T11:03:57.315Z,100874.65
2018-01-10T11:06:24.946Z,100873.48
2018-01-10T11:08:52.574Z,100874.77
2018-01-10T11:11:20.144Z,100873.87
2018-01-10T11:13:47.730Z,100870.84
2018-01-10T11:16:15.314Z,100868.91
2018-01-10T11:18:42.894Z,100868.70
2018-01-10T11:21:10.586Z,100868.47
2018-01-10T11:23:38.166Z,100874.33
2018-01-10T11:26:05.753Z,100871.53
2018-01-10T11:28:33.423Z,100876.87
2018-01-10T11:31:01.607Z,100863.55
2018-01-10T11:33:29.215Z,100861.68
2018-01-10T11:35:56.803Z,100853.19
2018-01-10T11:38:24.431Z,100854.25
2018-01-10T11:40:52.021Z,100850.47
2018-01-10T11:43:19.630Z,100853.27
2018-01-10T11:45:47.937Z,100848.31
2018-01-10T11:48:15.645Z,100843.94
2018-01-10T11:50:43.332Z,100850.95
2018-01-10T11:53:11.058Z,100851.03
2018-01-10T11:55:38.723Z,100858.88
2018-01-10T11:58:06.313Z,100863.89
2018-01-10T12:00:33.904Z,100870.17
2018-01-10T12:03:01.524Z,100865.77
2018-01-10T12:05:29.102Z,100862.64
2018-01-10T12:07:56.692Z,100866.55
2018-01-10T12:10:24.362Z,100867.00
2018-01-10T12:12:51.947Z,100871.09
2018-01-10T12:15:19.582Z,100873.34
2018-01-10T12:17:47.158Z,100883.59
2018-01-10T12:20:14.780Z,100883.38
2018-01-10T12:22:42.446Z,100877.23
2018-01-10T12:25:10.074Z,100880.20
2018-01-10T12:27:37.691Z,100879.78
2018-01-10T12:30:05.355Z,100880.98
2018-01-10T12:32:32.951Z,100881.16
2018-01-10T12:35:00.567Z,100874.45
2018-01-10T12:37:28.211Z,100879.64
2018-01-10T12:39:55.908Z,100881.86
2018-01-10T12:42:23.493Z,100888.34
2018-01-10T12:44:53.199Z,100888.97
2018-01-10T12:47:20.894Z,100897.48
2018-01-10T12:49:48.503Z,100896.58
2018-01-10T12:52:16.217Z,100880.66
2018-01-10T12:54:43.876Z,100873.27
2018-01-10T12:57:11.494Z,100864.36
2018-01-10T12:59:39.079Z,100873.76
2018-01-10T13:02:06.724Z,100873.84
2018-01-10T13:04:34.307Z,100874.83
2018-01-10T13:07:01.891Z,100877.60
2018-01-10T13:09:29.483Z,100877.94
2018-01-10T13:11:57.197Z,100875.48
2018-01-10T13:14:24.792Z,100876.56
2018-01-10T13:16:52.371Z,100869.67
2018-01-10T13:19:20.541Z,100874.08
2018-01-10T13:21:48.158Z,100873.26
2018-01-10T13:24:16.115Z,100866.89
2018-01-10T13:26:43.701Z,100869.89
2018-01-10T13:29:11.442Z,100875.67
2018-01-10T13:31:39.032Z,100871.23
2018-01-10T13:34:06.625Z,100870.87
2018-01-10T13:36:34.222Z,100869.71
2018-01-10T13:39:01.870Z,100864.27
2018-01-10T13:41:29.468Z,100872.73
2018-01-10T13:43:57.060Z,100870.05
2018-01-10T13:46:24.650Z,100870.11
2018-01-10T13:48:52.279Z,100870.89
2018-01-10T13:51:19.971Z,100869.04
2018-01-10T13:53:47.564Z,100869.20
2018-01-10T13:56:15.153Z,100863.80
2018-01-10T13:58:42.740Z,100871.15
2018-01-10T14:01:10.370Z,100872.78
2018-01-10T14:03:37.964Z,100871.59
2018-01-10T14:06:05.652Z,100876.25
2018-01-10T14:08:33.306Z,100869.88
2018-01-10T14:11:00.886Z,100870.13
2018-01-10T14:13:28.474Z,100871.42
2018-01-10T14:15:56.065Z,100871.83
2018-01-10T14:18:23.682Z,100880.73
2018-01-10T14:20:51.598Z,100879.94
2018-01-10T14:23:19.195Z,100876.61
2018-01-10T14:25:46.790Z,100882.45
2018-01-10T14:28:14.381Z,100884.03
2018-01-10T14:30:42.079Z,100883.92
2018-01-10T14:33:09.663Z,100875.52
2018-01-10T14:35:37.255Z,100873.26
2018-01-10T14:38:04.847Z,100874.95
2018-01-10T14:40:32.528Z,100876.14
2018-01-10T14:43:00.215Z,100883.92
2018-01-10T14:45:27.807Z,100879.05
2018-01-10T14:47:55.431Z,100874.22
2018-01-10T14:50:23.051Z,100869.77
2018-01-10T14:52:50.735Z,100876.28
2018-01-10T14:55:18.359Z,100878.95
2018-01-10T14:57:45.967Z,100877.63
2018-01-10T15:00:13.558Z,100881.77
2018-01-10T15:02:41.144Z,100891.94
2018-01-10T15:05:08.745Z,100881.23
2018-01-10T15:07:36.407Z,100882.13
2018-01-10T15:10:04.000Z,100884.28
2018-01-10T15:12:31.595Z,100891.41
2018-01-10T15:14:59.327Z,100888.61
2018-01-10T15:17:26.912Z,100892.56
2018-01-10T15:19:54.493Z,100886.19
2018-01-10T15:22:22.111Z,100886.41
2018-01-10T15:24:49.700Z,100886.86
2018-01-10T15:27:17.408Z,100887.42
2018-01-10T15:29:45.003Z,100886.31
2018-01-10T15:32:12.630Z,100879.05
2018-01-10T15:34:40.279Z,100886.66
2018-01-10T15:37:07.889Z,100883.61
2018-01-10T15:39:35.484Z,100879.73
2018-01-10T15:42:04.041Z,100883.80
2018-01-10T15:44:31.687Z,100889.88
2018-01-10T15:46:59.320Z,100888.29
2018-01-10T15:49:26.927Z,100881.47
2018-01-10T15:51:54.523Z,100881.80
2018-01-10T15:54:22.212Z,100879.72
2018-01-10T15:56:49.872Z,100882.98
2018-01-10T15:59:17.459Z,100878.73
2018-01-10T16:01:45.091Z,100874.84
2018-01-10T16:04:12.700Z,100881.13
2018-01-10T16:06:40.289Z,100875.71
2018-01-10T16:09:07.876Z,100871.31
2018-01-10T16:11:35.471Z,100870.77
2018-01-10T16:14:03.059Z,100861.67
2018-01-10T16:16:30.647Z,100858.81
2018-01-10T16:18:59.214Z,100865.79
2018-01-10T16:21:26.796Z,100877.36
2018-01-10T16:23:54.382Z,100874.97
2018-01-10T16:26:21.971Z,100879.80
2018-01-10T16:28:49.640Z,100866.75
2018-01-10T16:31:17.276Z,100876.25
2018-01-10T16:33:44.864Z,100875.77
2018-01-10T16:36:12.478Z,100877.08
2018-01-10T16:38:40.071Z,100878.02
2018-01-10T16:41:07.664Z,100866.89
2018-01-10T16:43:35.359Z,100864.30
2018-01-10T16:46:03.061Z,100859.76
2018-01-10T16:48:30.701Z,100857.79
2018-01-10T16:50:58.389Z,100861.59
2018-01-10T16:53:26.016Z,100861.36
2018-01-10T16:55:53.613Z,100860.82
2018-01-10T16:58:21.199Z,100848.67
2018-01-10T17:00:48.899Z,100853.64
2018-01-10T17:03:16.493Z,100850.52
2018-01-10T17:05:44.084Z,100857.42
2018-01-10T17:08:11.823Z,100863.23
2018-01-10T17:10:39.415Z,100863.42
2018-01-10T17:13:07.004Z,100866.86
2018-01-10T17:15:34.718Z,100870.10
2018-01-10T17:18:02.306Z,100871.19
2018-01-10T17:20:29.904Z,100870.94
2018-01-10T17:22:57.572Z,100874.81
2018-01-10T17:25:25.167Z,100887.86
2018-01-10T17:27:52.841Z,100887.91
2018-01-10T17:30:20.428Z,100885.02
2018-01-10T17:32:48.045Z,100884.02
2018-01-10T17:35:15.662Z,100881.14
2018-01-10T17:37:43.336Z,100878.13
2018-01-10T17:40:11.003Z,100877.03
2018-01-10T17:42:38.623Z,100878.45
2018-01-10T17:45:06.208Z,100881.75
2018-01-10T17:47:33.831Z,100883.89
2018-01-10T17:50:01.422Z,100887.23
2018-01-10T17:52:30.033Z,100896.91
2018-01-10T17:54:57.724Z,100892.19
2018-01-10T17:57:25.507Z,100896.59
2018-01-10T17:59:53.096Z,100895.50
2018-01-10T18:02:21.462Z,100898.19
2018-01-10T18:04:49.060Z,100896.77
2018-01-10T18:07:16.651Z,100894.60
2018-01-10T18:09:44.239Z,100889.30
2018-01-10T18:12:11.819Z,100891.49
2018-01-10T18:14:39.714Z,100893.56
2018-01-10T18:17:07.371Z,100892.21
2018-01-10T18:19:35.035Z,100896.59
2018-01-10T18:22:02.623Z,100894.32
2018-01-10T18:24:30.363Z,100896.16
2018-01-10T18:26:57.955Z,100890.36
2018-01-10T18:29:25.687Z,100894.77
2018-01-10T18:31:53.404Z,100896.53
2018-01-10T18:34:21.119Z,100900.80
2018-01-10T18:36:48.784Z,100897.36
2018-01-10T18:39:16.375Z,100896.50
2018-01-10T18:41:44.107Z,100895.19
2018-01-10T18:44:11.734Z,100899.14
2018-01-10T18:46:39.432Z,100893.80
2018-01-10T18:49:07.133Z,100896.92
2018-01-10T18:51:34.867Z,100898.20
2018-01-10T18:54:02.487Z,100907.62
2018-01-10T18:56:30.071Z,100905.22
2018-01-10T18:58:57.650Z,100909.69
2018-01-10T19:01:25.231Z,100903.88
2018-01-10T19:03:52.872Z,100906.19
2018-01-10T19:06:20.462Z,100903.01
2018-01-10T19:08:48.141Z,100909.56
2018-01-10T19:11:15.779Z,100907.08
2018-01-10T19:13:43.432Z,100919.14
2018-01-10T19:16:11.089Z,100915.37
2018-01-10T19:18:38.796Z,100915.30
2018-01-10T19:21:06.824Z,100914.72
2018-01-10T19:23:34.692Z,100923.54
2018-01-10T19:26:02.371Z,100922.95
2018-01-10T19:28:29.996Z,100922.89
2018-01-10T19:30:58.688Z,100924.19
2018-01-10T19:33:26.453Z,100925.53
2018-01-10T19:35:54.927Z,100930.05
2018-01-10T19:38:24.020Z,100922.31
2018-01-10T19:40:51.962Z,100925.95
2018-01-10T19:43:20.586Z,100927.44
2018-01-10T19:45:48.238Z,100933.64
2018-01-10T19:48:17.795Z,100934.94
2018-01-10T19:50:45.432Z,100937.01
2018-01-10T19:53:13.176Z,100935.91
2018-01-10T19:55:40.863Z,100927.02
2018-01-10T19:58:08.535Z,100926.36
2018-01-10T20:00:36.198Z,100926.66
2018-01-10T20:03:03.851Z,100930.12
2018-01-10T20:05:31.554Z,100928.31
2018-01-10T20:08:00.613Z,100931.13
2018-01-10T20:10:28.199Z,100942.39
2018-01-10T20:12:55.868Z,100941.85
2018-01-10T20:15:23.797Z,100943.00
2018-01-10T20:17:51.599Z,100947.28
2018-01-10T20:20:19.904Z,100943.17
2018-01-10T20:22:47.515Z,100933.95
2018-01-10T20:25:15.099Z,100938.53
2018-01-10T20:27:42.699Z,100944.13
2018-01-10T20:30:10.442Z,100944.58
2018-01-10T20:32:38.056Z,100944.31
2018-01-10T20:35:05.716Z,100942.29
2018-01-10T20:37:33.315Z,100951.25
2018-01-10T20:40:00.939Z,100943.56
2018-01-10T20:42:28.657Z,100944.30
2018-01-10T20:44:56.376Z,100949.05
2018-01-10T20:47:24.043Z,100942.56
2018-01-10T20:49:51.800Z,100947.46
2018-01-10T20:52:19.472Z,100954.49
2018-01-10T20:54:47.098Z,100938.70
2018-01-10T20:57:14.692Z,100942.02
2018-01-10T20:59:42.285Z,100940.57
2018-01-10T21:02:09.887Z,100943.39
2018-01-10T21:04:37.624Z,100939.98
2018-01-10T21:07:05.303Z,100936.42
2018-01-10T21:09:32.894Z,100936.15
2018-01-10T21:12:00.485Z,100940.03
2018-01-10T21:14:28.077Z,100938.16
2018-01-10T21:16:55.660Z,100939.84
2018-01-10T21:19:23.530Z,100944.90
2018-01-10T21:21:51.184Z,100936.92
2018-01-10T21:24:18.772Z,100946.88
2018-01-10T21:26:46.371Z,100933.70
2018-01-10T21:29:13.965Z,100941.27
2018-01-10T21:31:41.555Z,100949.63
2018-01-10T21:34:09.147Z,100948.83
2018-01-10T21:36:36.760Z,100951.91
2018-01-10T21:39:04.364Z,100958.14
2018-01-10T21:41:31.954Z,100954.68
2018-01-10T21:43:59.726Z,100956.92
2018-01-10T21:46:27.314Z,100957.12
2018-01-10T21:48:54.942Z,100952.48
2018-01-10T21:51:22.527Z,100953.70
2018-01-10T21:53:50.252Z,100957.69
2018-01-10T21:56:17.891Z,100958.67
2018-01-10T21:58:45.547Z,100958.56
2018-01-10T22:01:13.139Z,100965.30
2018-01-10T22:03:40.780Z,100972.41
2018-01-10T22:06:08.791Z,100959.14
2018-01-10T22:08:37.175Z,100970.65
2018-01-10T22:11:04.799Z,100961.83
2018-01-10T22:13:32.439Z,100968.86
2018-01-10T22:16:00.158Z,100959.31
2018-01-10T22:18:27.752Z,100961.05
2018-01-10T22:20:55.340Z,100959.78
2018-01-10T22:23:22.999Z,100957.12
2018-01-10T22:25:50.588Z,100961.18
2018-01-10T22:28:18.251Z,100963.59
2018-01-10T22:30:45.930Z,100966.52
2018-01-10T22:33:13.552Z,100959.89
2018-01-10T22:35:41.179Z,100956.42
2018-01-10T22:38:08.767Z,100955.22
2018-01-10T22:40:36.351Z,100953.95
2018-01-10T22:43:03.938Z,100945.23
2018-01-10T22:45:31.561Z,100951.78
2018-01-10T22:47:59.157Z,100954.53
2018-01-10T22:50:26.748Z,100953.15
2018-01-10T22:52:54.343Z,100956.26
2018-01-10T22:55:22.000Z,100952.01
2018-01-10T22:57:49.663Z,100956.06
2018-01-10T23:00:17.360Z,100955.20
2018-01-10T23:02:45.019Z,100953.16
2018-01-10T23:05:12.644Z,100959.16
2018-01-10T23:07:40.267Z,100956.41
2018-01-10T23:10:07.859Z,100960.54
2018-01-10T23:12:35.438Z,100960.77
2018-01-10T23:15:03.027Z,100944.37
2018-01-10T23:17:30.653Z,100951.58
2018-01-10T23:19:58.323Z,100950.49
2018-01-10T23:22:25.948Z,100956.17
2018-01-10T23:24:54.452Z,100950.15
2018-01-10T23:27:22.052Z,100945.74
2018-01-10T23:29:49.646Z,100942.05
2018-01-10T23:32:17.240Z,100951.08
2018-01-10T23:34:44.865Z,100948.76
2018-01-10T23:37:12.455Z,100947.95
2018-01-10T23:39:40.080Z,100959.59
2018-01-10T23:42:07.667Z,100963.10
2018-01-10T23:44:35.335Z,100967.05
2018-01-10T23:47:02.956Z,100961.47
2018-01-10T23:49:30.548Z,100960.21
2018-01-10T23:51:58.139Z,100959.40
2018-01-10T23:54:25.842Z,100962.95
2018-01-10T23:56:53.426Z,100961.66
2018-01-10T23:59:21.040Z,100961.81
